sensor_id;sensor_type;location;lat;lon;timestamp;P1;durP1;ratioP1;P2;durP2;ratioP2
19575;SDS011;41589;51.196;7.074;2023-04-16T00:04:39;15.90;;;4.57;;
19575;SDS011;41589;51.196;7.074;2023-04-16T00:09:39;40.77;;;9.50;;
19575;SDS011;41589;51.196;7.074;2023-04-16T00:14:40;9.73;;;4.07;;
19575;SDS011;41589;51.196;7.074;2023-04-16T00:19:42;25.80;;;5.30;;
19575;SDS011;41589;51.196;7.074;2023-04-16T00:24:43;20.03;;;4.50;;
19575;SDS011;41589;51.196;7.074;2023-04-16T00:29:43;36.83;;;7.00;;
19575;SDS011;41589;51.196;7.074;2023-04-16T00:34:43;8.57;;;4.20;;
19575;SDS011;41589;51.196;7.074;2023-04-16T00:39:44;21.67;;;4.97;;
19575;SDS011;41589;51.196;7.074;2023-04-16T00:44:45;12.07;;;4.47;;
19575;SDS011;41589;51.196;7.074;2023-04-16T00:49:45;11.43;;;3.90;;
19575;SDS011;41589;51.196;7.074;2023-04-16T00:54:49;20.07;;;5.90;;
19575;SDS011;41589;51.196;7.074;2023-04-16T00:59:50;12.73;;;3.67;;
19575;SDS011;41589;51.196;7.074;2023-04-16T01:04:50;6.23;;;3.33;;
19575;SDS011;41589;51.196;7.074;2023-04-16T01:09:51;17.27;;;5.30;;
19575;SDS011;41589;51.196;7.074;2023-04-16T01:14:51;8.03;;;3.90;;
19575;SDS011;41589;51.196;7.074;2023-04-16T01:19:52;4.90;;;3.60;;
19575;SDS011;41589;51.196;7.074;2023-04-16T01:24:55;4.37;;;3.97;;
19575;SDS011;41589;51.196;7.074;2023-04-16T01:29:57;4.33;;;3.93;;
19575;SDS011;41589;51.196;7.074;2023-04-16T01:35:10;4.50;;;4.10;;
19575;SDS011;41589;51.196;7.074;2023-04-16T01:40:10;4.00;;;3.70;;
19575;SDS011;41589;51.196;7.074;2023-04-16T01:45:11;4.70;;;4.30;;
19575;SDS011;41589;51.196;7.074;2023-04-16T01:50:14;4.80;;;4.50;;
19575;SDS011;41589;51.196;7.074;2023-04-16T01:55:17;4.43;;;4.13;;
19575;SDS011;41589;51.196;7.074;2023-04-16T02:00:21;4.20;;;3.90;;
19575;SDS011;41589;51.196;7.074;2023-04-16T02:05:21;4.40;;;4.00;;
19575;SDS011;41589;51.196;7.074;2023-04-16T02:10:22;4.57;;;4.17;;
19575;SDS011;41589;51.196;7.074;2023-04-16T02:15:23;5.13;;;4.17;;
19575;SDS011;41589;51.196;7.074;2023-04-16T02:20:24;4.40;;;3.90;;
19575;SDS011;41589;51.196;7.074;2023-04-16T02:25:30;8.23;;;4.53;;
19575;SDS011;41589;51.196;7.074;2023-04-16T02:30:33;10.30;;;4.93;;
19575;SDS011;41589;51.196;7.074;2023-04-16T02:35:37;13.27;;;6.40;;
19575;SDS011;41589;51.196;7.074;2023-04-16T02:40:39;12.53;;;4.97;;
19575;SDS011;41589;51.196;7.074;2023-04-16T02:45:40;19.37;;;5.23;;
19575;SDS011;41589;51.196;7.074;2023-04-16T02:50:40;16.93;;;5.50;;
19575;SDS011;41589;51.196;7.074;2023-04-16T02:55:45;26.73;;;6.70;;
19575;SDS011;41589;51.196;7.074;2023-04-16T03:00:52;40.97;;;8.20;;
19575;SDS011;41589;51.196;7.074;2023-04-16T03:05:53;13.40;;;5.37;;
19575;SDS011;41589;51.196;7.074;2023-04-16T03:10:53;14.90;;;5.53;;
19575;SDS011;41589;51.196;7.074;2023-04-16T03:15:54;14.53;;;6.80;;
19575;SDS011;41589;51.196;7.074;2023-04-16T03:20:54;13.23;;;5.20;;
19575;SDS011;41589;51.196;7.074;2023-04-16T03:26:00;8.23;;;4.53;;
19575;SDS011;41589;51.196;7.074;2023-04-16T03:31:02;8.27;;;5.27;;
19575;SDS011;41589;51.196;7.074;2023-04-16T03:36:03;8.60;;;5.30;;
19575;SDS011;41589;51.196;7.074;2023-04-16T03:41:04;6.03;;;5.30;;
19575;SDS011;41589;51.196;7.074;2023-04-16T03:46:07;6.53;;;5.83;;
19575;SDS011;41589;51.196;7.074;2023-04-16T03:51:07;9.50;;;5.47;;
19575;SDS011;41589;51.196;7.074;2023-04-16T03:56:08;18.97;;;5.53;;
19575;SDS011;41589;51.196;7.074;2023-04-16T04:01:09;9.03;;;5.63;;
19575;SDS011;41589;51.196;7.074;2023-04-16T04:06:11;8.67;;;6.20;;
19575;SDS011;41589;51.196;7.074;2023-04-16T04:11:12;11.97;;;6.93;;
19575;SDS011;41589;51.196;7.074;2023-04-16T04:16:14;16.70;;;7.23;;
19575;SDS011;41589;51.196;7.074;2023-04-16T04:21:17;13.33;;;6.83;;
19575;SDS011;41589;51.196;7.074;2023-04-16T04:26:20;19.17;;;7.30;;
19575;SDS011;41589;51.196;7.074;2023-04-16T04:31:21;18.37;;;7.00;;
19575;SDS011;41589;51.196;7.074;2023-04-16T04:36:21;7.10;;;6.40;;
19575;SDS011;41589;51.196;7.074;2023-04-16T04:41:23;23.87;;;8.43;;
19575;SDS011;41589;51.196;7.074;2023-04-16T04:46:26;11.33;;;7.47;;
19575;SDS011;41589;51.196;7.074;2023-04-16T04:51:27;13.57;;;8.23;;
19575;SDS011;41589;51.196;7.074;2023-04-16T04:56:27;9.70;;;7.73;;
19575;SDS011;41589;51.196;7.074;2023-04-16T05:01:28;11.73;;;7.87;;
19575;SDS011;41589;51.196;7.074;2023-04-16T05:06:28;17.20;;;7.90;;
19575;SDS011;41589;51.196;7.074;2023-04-16T05:11:32;16.80;;;8.03;;
19575;SDS011;41589;51.196;7.074;2023-04-16T05:16:36;14.37;;;9.37;;
19575;SDS011;41589;51.196;7.074;2023-04-16T05:21:36;18.20;;;8.97;;
19575;SDS011;41589;51.196;7.074;2023-04-16T05:26:37;17.90;;;9.63;;
19575;SDS011;41589;51.196;7.074;2023-04-16T05:31:38;19.77;;;9.87;;
19575;SDS011;41589;51.196;7.074;2023-04-16T05:36:39;15.07;;;8.63;;
19575;SDS011;41589;51.196;7.074;2023-04-16T05:41:39;22.20;;;11.67;;
19575;SDS011;41589;51.196;7.074;2023-04-16T05:46:40;20.80;;;10.67;;
19575;SDS011;41589;51.196;7.074;2023-04-16T05:51:41;21.73;;;10.63;;
19575;SDS011;41589;51.196;7.074;2023-04-16T05:56:41;17.97;;;10.03;;
19575;SDS011;41589;51.196;7.074;2023-04-16T06:01:42;33.23;;;13.93;;
19575;SDS011;41589;51.196;7.074;2023-04-16T06:06:46;14.23;;;10.57;;
19575;SDS011;41589;51.196;7.074;2023-04-16T06:11:46;16.30;;;11.37;;
19575;SDS011;41589;51.196;7.074;2023-04-16T06:16:47;11.60;;;10.37;;
19575;SDS011;41589;51.196;7.074;2023-04-16T06:21:48;11.33;;;10.33;;
19575;SDS011;41589;51.196;7.074;2023-04-16T06:26:49;10.27;;;9.37;;
19575;SDS011;41589;51.196;7.074;2023-04-16T06:31:49;11.07;;;10.07;;
19575;SDS011;41589;51.196;7.074;2023-04-16T06:36:50;10.27;;;9.37;;
19575;SDS011;41589;51.196;7.074;2023-04-16T06:41:50;9.67;;;8.87;;
19575;SDS011;41589;51.196;7.074;2023-04-16T06:46:51;8.63;;;7.93;;
19575;SDS011;41589;51.196;7.074;2023-04-16T06:51:51;8.10;;;7.50;;
19575;SDS011;41589;51.196;7.074;2023-04-16T06:56:52;8.47;;;7.77;;
19575;SDS011;41589;51.196;7.074;2023-04-16T07:01:52;7.47;;;6.97;;
19575;SDS011;41589;51.196;7.074;2023-04-16T07:06:53;8.23;;;7.63;;
19575;SDS011;41589;51.196;7.074;2023-04-16T07:11:53;7.47;;;6.90;;
19575;SDS011;41589;51.196;7.074;2023-04-16T07:16:54;7.30;;;6.70;;
19575;SDS011;41589;51.196;7.074;2023-04-16T07:21:54;7.27;;;6.67;;
19575;SDS011;41589;51.196;7.074;2023-04-16T07:26:54;8.00;;;7.30;;
19575;SDS011;41589;51.196;7.074;2023-04-16T07:31:55;8.53;;;7.83;;
19575;SDS011;41589;51.196;7.074;2023-04-16T07:36:56;8.20;;;7.43;;
19575;SDS011;41589;51.196;7.074;2023-04-16T07:41:56;9.13;;;8.43;;
19575;SDS011;41589;51.196;7.074;2023-04-16T07:46:57;8.63;;;7.93;;
19575;SDS011;41589;51.196;7.074;2023-04-16T07:51:57;8.30;;;7.60;;
19575;SDS011;41589;51.196;7.074;2023-04-16T07:56:57;7.97;;;7.47;;
19575;SDS011;41589;51.196;7.074;2023-04-16T08:01:58;7.97;;;7.37;;
19575;SDS011;41589;51.196;7.074;2023-04-16T08:06:58;8.00;;;7.27;;
19575;SDS011;41589;51.196;7.074;2023-04-16T08:11:59;7.63;;;7.03;;
19575;SDS011;41589;51.196;7.074;2023-04-16T08:17:00;7.87;;;7.27;;
19575;SDS011;41589;51.196;7.074;2023-04-16T08:22:00;8.00;;;7.40;;
19575;SDS011;41589;51.196;7.074;2023-04-16T08:27:00;7.53;;;7.03;;
19575;SDS011;41589;51.196;7.074;2023-04-16T08:32:01;8.20;;;7.60;;
19575;SDS011;41589;51.196;7.074;2023-04-16T08:37:01;7.57;;;7.03;;
19575;SDS011;41589;51.196;7.074;2023-04-16T08:42:03;8.23;;;7.73;;
19575;SDS011;41589;51.196;7.074;2023-04-16T08:47:05;8.10;;;7.60;;
19575;SDS011;41589;51.196;7.074;2023-04-16T08:52:08;7.47;;;6.87;;
19575;SDS011;41589;51.196;7.074;2023-04-16T08:57:15;8.17;;;7.57;;
19575;SDS011;41589;51.196;7.074;2023-04-16T09:02:18;8.57;;;7.97;;
19575;SDS011;41589;51.196;7.074;2023-04-16T09:07:19;7.63;;;7.13;;
19575;SDS011;41589;51.196;7.074;2023-04-16T09:12:24;7.00;;;6.60;;
19575;SDS011;41589;51.196;7.074;2023-04-16T09:17:24;6.47;;;6.07;;
19575;SDS011;41589;51.196;7.074;2023-04-16T09:22:26;7.73;;;7.23;;
19575;SDS011;41589;51.196;7.074;2023-04-16T09:27:26;6.47;;;6.07;;
19575;SDS011;41589;51.196;7.074;2023-04-16T09:32:27;5.83;;;5.43;;
19575;SDS011;41589;51.196;7.074;2023-04-16T09:37:28;6.27;;;5.87;;
19575;SDS011;41589;51.196;7.074;2023-04-16T09:42:30;5.77;;;5.47;;
19575;SDS011;41589;51.196;7.074;2023-04-16T09:47:39;5.70;;;5.30;;
19575;SDS011;41589;51.196;7.074;2023-04-16T09:52:42;5.27;;;4.97;;
19575;SDS011;41589;51.196;7.074;2023-04-16T09:57:44;5.20;;;4.83;;
19575;SDS011;41589;51.196;7.074;2023-04-16T10:02:44;5.93;;;5.40;;
19575;SDS011;41589;51.196;7.074;2023-04-16T10:07:45;5.87;;;5.50;;
19575;SDS011;41589;51.196;7.074;2023-04-16T10:12:47;5.57;;;5.27;;
19575;SDS011;41589;51.196;7.074;2023-04-16T10:17:48;4.97;;;4.67;;
19575;SDS011;41589;51.196;7.074;2023-04-16T10:22:50;5.17;;;4.87;;
19575;SDS011;41589;51.196;7.074;2023-04-16T10:27:51;4.80;;;4.50;;
19575;SDS011;41589;51.196;7.074;2023-04-16T10:32:52;4.40;;;4.20;;
19575;SDS011;41589;51.196;7.074;2023-04-16T10:37:56;4.80;;;4.50;;
19575;SDS011;41589;51.196;7.074;2023-04-16T10:42:57;4.90;;;4.60;;
19575;SDS011;41589;51.196;7.074;2023-04-16T10:47:58;4.93;;;4.63;;
19575;SDS011;41589;51.196;7.074;2023-04-16T10:58:26;4.27;;;4.07;;
19575;SDS011;41589;51.196;7.074;2023-04-16T11:03:30;4.20;;;3.97;;
19575;SDS011;41589;51.196;7.074;2023-04-16T11:08:33;3.50;;;3.30;;
19575;SDS011;41589;51.196;7.074;2023-04-16T11:13:35;3.70;;;3.50;;
19575;SDS011;41589;51.196;7.074;2023-04-16T11:18:37;4.37;;;4.17;;
19575;SDS011;41589;51.196;7.074;2023-04-16T11:23:49;3.87;;;3.67;;
19575;SDS011;41589;51.196;7.074;2023-04-16T11:28:50;3.90;;;3.70;;
19575;SDS011;41589;51.196;7.074;2023-04-16T11:33:54;3.90;;;3.70;;
19575;SDS011;41589;51.196;7.074;2023-04-16T11:38:59;3.50;;;3.30;;
19575;SDS011;41589;51.196;7.074;2023-04-16T11:44:15;3.87;;;3.67;;
19575;SDS011;41589;51.196;7.074;2023-04-16T11:49:29;3.20;;;3.10;;
19575;SDS011;41589;51.196;7.074;2023-04-16T11:54:29;3.20;;;3.10;;
19575;SDS011;41589;51.196;7.074;2023-04-16T11:59:35;3.50;;;3.30;;
19575;SDS011;41589;51.196;7.074;2023-04-16T12:04:36;3.07;;;2.97;;
19575;SDS011;41589;51.196;7.074;2023-04-16T12:09:37;2.90;;;2.80;;
19575;SDS011;41589;51.196;7.074;2023-04-16T12:14:38;3.10;;;3.00;;
19575;SDS011;41589;51.196;7.074;2023-04-16T12:20:02;3.40;;;3.20;;
19575;SDS011;41589;51.196;7.074;2023-04-16T12:25:12;3.17;;;3.07;;
19575;SDS011;41589;51.196;7.074;2023-04-16T12:30:14;2.73;;;2.63;;
19575;SDS011;41589;51.196;7.074;2023-04-16T12:35:28;3.23;;;3.03;;
19575;SDS011;41589;51.196;7.074;2023-04-16T12:40:33;3.40;;;3.20;;
19575;SDS011;41589;51.196;7.074;2023-04-16T12:45:36;2.77;;;2.67;;
19575;SDS011;41589;51.196;7.074;2023-04-16T12:50:40;3.67;;;3.47;;
19575;SDS011;41589;51.196;7.074;2023-04-16T12:55:44;3.17;;;2.97;;
19575;SDS011;41589;51.196;7.074;2023-04-16T13:00:44;3.20;;;3.00;;
19575;SDS011;41589;51.196;7.074;2023-04-16T13:05:47;3.03;;;2.83;;
19575;SDS011;41589;51.196;7.074;2023-04-16T13:10:51;3.63;;;3.27;;
19575;SDS011;41589;51.196;7.074;2023-04-16T13:15:52;3.10;;;3.00;;
19575;SDS011;41589;51.196;7.074;2023-04-16T13:20:53;3.33;;;3.13;;
19575;SDS011;41589;51.196;7.074;2023-04-16T13:26:05;2.97;;;2.77;;
19575;SDS011;41589;51.196;7.074;2023-04-16T13:31:12;3.20;;;3.00;;
19575;SDS011;41589;51.196;7.074;2023-04-16T13:36:25;3.20;;;3.00;;
19575;SDS011;41589;51.196;7.074;2023-04-16T13:41:29;2.93;;;2.83;;
19575;SDS011;41589;51.196;7.074;2023-04-16T13:46:31;3.20;;;3.00;;
19575;SDS011;41589;51.196;7.074;2023-04-16T13:51:31;3.40;;;3.20;;
19575;SDS011;41589;51.196;7.074;2023-04-16T13:56:32;3.50;;;3.30;;
19575;SDS011;41589;51.196;7.074;2023-04-16T14:01:32;3.20;;;3.00;;
19575;SDS011;41589;51.196;7.074;2023-04-16T14:06:33;3.40;;;3.20;;
19575;SDS011;41589;51.196;7.074;2023-04-16T14:11:34;3.00;;;2.90;;
19575;SDS011;41589;51.196;7.074;2023-04-16T14:16:35;3.27;;;3.17;;
19575;SDS011;41589;51.196;7.074;2023-04-16T14:21:39;3.20;;;3.00;;
19575;SDS011;41589;51.196;7.074;2023-04-16T14:26:39;3.50;;;3.30;;
19575;SDS011;41589;51.196;7.074;2023-04-16T14:31:44;3.47;;;3.27;;
19575;SDS011;41589;51.196;7.074;2023-04-16T14:36:45;3.60;;;3.30;;
19575;SDS011;41589;51.196;7.074;2023-04-16T14:41:46;3.33;;;3.20;;
19575;SDS011;41589;51.196;7.074;2023-04-16T14:46:46;4.00;;;3.80;;
19575;SDS011;41589;51.196;7.074;2023-04-16T14:51:47;3.60;;;3.40;;
19575;SDS011;41589;51.196;7.074;2023-04-16T14:56:48;3.43;;;3.23;;
19575;SDS011;41589;51.196;7.074;2023-04-16T15:01:49;3.60;;;3.40;;
19575;SDS011;41589;51.196;7.074;2023-04-16T15:06:53;3.53;;;3.33;;
19575;SDS011;41589;51.196;7.074;2023-04-16T15:11:58;3.40;;;3.20;;
19575;SDS011;41589;51.196;7.074;2023-04-16T15:16:58;3.77;;;3.57;;
19575;SDS011;41589;51.196;7.074;2023-04-16T15:21:59;3.37;;;3.17;;
19575;SDS011;41589;51.196;7.074;2023-04-16T15:27:00;3.93;;;3.63;;
19575;SDS011;41589;51.196;7.074;2023-04-16T15:32:01;4.00;;;3.70;;
19575;SDS011;41589;51.196;7.074;2023-04-16T15:37:02;3.30;;;3.10;;
19575;SDS011;41589;51.196;7.074;2023-04-16T15:42:03;3.20;;;3.00;;
19575;SDS011;41589;51.196;7.074;2023-04-16T15:47:06;3.40;;;3.20;;
19575;SDS011;41589;51.196;7.074;2023-04-16T15:52:09;2.97;;;2.87;;
19575;SDS011;41589;51.196;7.074;2023-04-16T15:57:33;2.90;;;2.70;;
19575;SDS011;41589;51.196;7.074;2023-04-16T16:03:03;2.83;;;2.73;;
19575;SDS011;41589;51.196;7.074;2023-04-16T16:08:03;2.87;;;2.70;;
19575;SDS011;41589;51.196;7.074;2023-04-16T16:13:04;2.40;;;2.30;;
19575;SDS011;41589;51.196;7.074;2023-04-16T16:18:07;2.30;;;2.20;;
19575;SDS011;41589;51.196;7.074;2023-04-16T16:23:07;2.40;;;2.27;;
19575;SDS011;41589;51.196;7.074;2023-04-16T16:28:08;2.30;;;2.20;;
19575;SDS011;41589;51.196;7.074;2023-04-16T16:33:09;2.33;;;2.13;;
19575;SDS011;41589;51.196;7.074;2023-04-16T16:38:09;2.50;;;2.40;;
19575;SDS011;41589;51.196;7.074;2023-04-16T16:43:10;2.30;;;2.20;;
19575;SDS011;41589;51.196;7.074;2023-04-16T16:48:10;2.93;;;2.60;;
19575;SDS011;41589;51.196;7.074;2023-04-16T16:58:15;2.50;;;2.40;;
19575;SDS011;41589;51.196;7.074;2023-04-16T17:03:19;2.40;;;2.30;;
19575;SDS011;41589;51.196;7.074;2023-04-16T17:08:19;2.60;;;2.50;;
19575;SDS011;41589;51.196;7.074;2023-04-16T17:13:20;2.37;;;2.27;;
19575;SDS011;41589;51.196;7.074;2023-04-16T17:18:20;2.50;;;2.40;;
19575;SDS011;41589;51.196;7.074;2023-04-16T17:23:21;2.30;;;2.20;;
19575;SDS011;41589;51.196;7.074;2023-04-16T17:28:21;2.20;;;2.10;;
19575;SDS011;41589;51.196;7.074;2023-04-16T17:33:21;2.30;;;2.20;;
19575;SDS011;41589;51.196;7.074;2023-04-16T17:38:22;3.27;;;3.07;;
19575;SDS011;41589;51.196;7.074;2023-04-16T17:43:23;3.93;;;3.70;;
19575;SDS011;41589;51.196;7.074;2023-04-16T17:48:24;3.97;;;3.67;;
19575;SDS011;41589;51.196;7.074;2023-04-16T17:53:28;4.33;;;4.03;;
19575;SDS011;41589;51.196;7.074;2023-04-16T17:58:31;4.37;;;4.07;;
19575;SDS011;41589;51.196;7.074;2023-04-16T18:03:37;4.20;;;3.80;;
19575;SDS011;41589;51.196;7.074;2023-04-16T18:08:42;4.50;;;4.17;;
19575;SDS011;41589;51.196;7.074;2023-04-16T18:13:45;4.03;;;3.73;;
19575;SDS011;41589;51.196;7.074;2023-04-16T18:18:46;4.20;;;3.90;;
19575;SDS011;41589;51.196;7.074;2023-04-16T18:23:46;4.03;;;3.83;;
19575;SDS011;41589;51.196;7.074;2023-04-16T18:28:47;4.33;;;3.93;;
19575;SDS011;41589;51.196;7.074;2023-04-16T18:33:47;3.90;;;3.70;;
19575;SDS011;41589;51.196;7.074;2023-04-16T18:38:47;4.50;;;4.20;;
19575;SDS011;41589;51.196;7.074;2023-04-16T18:43:48;4.40;;;4.10;;
19575;SDS011;41589;51.196;7.074;2023-04-16T18:48:48;4.43;;;4.13;;
19575;SDS011;41589;51.196;7.074;2023-04-16T18:53:49;4.53;;;4.23;;
19575;SDS011;41589;51.196;7.074;2023-04-16T18:58:50;4.90;;;4.50;;
19575;SDS011;41589;51.196;7.074;2023-04-16T19:03:50;5.07;;;4.70;;
19575;SDS011;41589;51.196;7.074;2023-04-16T19:08:51;4.83;;;4.53;;
19575;SDS011;41589;51.196;7.074;2023-04-16T19:13:51;4.50;;;4.10;;
19575;SDS011;41589;51.196;7.074;2023-04-16T19:18:51;5.33;;;4.93;;
19575;SDS011;41589;51.196;7.074;2023-04-16T19:23:55;4.83;;;4.43;;
19575;SDS011;41589;51.196;7.074;2023-04-16T19:28:57;5.20;;;4.73;;
19575;SDS011;41589;51.196;7.074;2023-04-16T19:33:57;5.70;;;5.30;;
19575;SDS011;41589;51.196;7.074;2023-04-16T19:38:58;5.40;;;5.00;;
19575;SDS011;41589;51.196;7.074;2023-04-16T19:44:06;5.47;;;5.07;;
19575;SDS011;41589;51.196;7.074;2023-04-16T19:49:10;5.67;;;5.23;;
19575;SDS011;41589;51.196;7.074;2023-04-16T19:54:12;5.30;;;4.90;;
19575;SDS011;41589;51.196;7.074;2023-04-16T19:59:21;5.67;;;5.10;;
19575;SDS011;41589;51.196;7.074;2023-04-16T20:04:29;5.83;;;5.33;;
19575;SDS011;41589;51.196;7.074;2023-04-16T20:09:30;4.80;;;4.40;;
19575;SDS011;41589;51.196;7.074;2023-04-16T20:14:36;5.83;;;5.43;;
19575;SDS011;41589;51.196;7.074;2023-04-16T20:19:46;5.63;;;5.13;;
19575;SDS011;41589;51.196;7.074;2023-04-16T20:24:48;5.37;;;4.97;;
19575;SDS011;41589;51.196;7.074;2023-04-16T20:29:48;5.07;;;4.67;;
19575;SDS011;41589;51.196;7.074;2023-04-16T20:34:58;4.60;;;4.23;;
19575;SDS011;41589;51.196;7.074;2023-04-16T20:39:59;5.63;;;5.00;;
19575;SDS011;41589;51.196;7.074;2023-04-16T20:45:05;5.23;;;4.80;;
19575;SDS011;41589;51.196;7.074;2023-04-16T20:50:12;4.67;;;4.33;;
19575;SDS011;41589;51.196;7.074;2023-04-16T20:55:18;5.30;;;4.90;;
19575;SDS011;41589;51.196;7.074;2023-04-16T21:00:29;4.70;;;4.30;;
19575;SDS011;41589;51.196;7.074;2023-04-16T21:05:33;5.23;;;4.83;;
19575;SDS011;41589;51.196;7.074;2023-04-16T21:10:33;4.73;;;4.43;;
19575;SDS011;41589;51.196;7.074;2023-04-16T21:15:35;6.23;;;5.73;;
19575;SDS011;41589;51.196;7.074;2023-04-16T21:20:37;5.17;;;4.77;;
19575;SDS011;41589;51.196;7.074;2023-04-16T21:25:38;5.07;;;4.77;;
19575;SDS011;41589;51.196;7.074;2023-04-16T21:30:38;5.13;;;4.73;;
19575;SDS011;41589;51.196;7.074;2023-04-16T21:35:39;5.00;;;4.60;;
19575;SDS011;41589;51.196;7.074;2023-04-16T21:40:39;5.13;;;4.83;;
19575;SDS011;41589;51.196;7.074;2023-04-16T21:45:40;5.70;;;5.10;;
19575;SDS011;41589;51.196;7.074;2023-04-16T21:50:40;5.20;;;4.80;;
19575;SDS011;41589;51.196;7.074;2023-04-16T21:55:40;5.40;;;5.10;;
19575;SDS011;41589;51.196;7.074;2023-04-16T22:00:43;5.80;;;5.40;;
19575;SDS011;41589;51.196;7.074;2023-04-16T22:05:44;5.97;;;5.53;;
19575;SDS011;41589;51.196;7.074;2023-04-16T22:10:45;5.90;;;5.40;;
19575;SDS011;41589;51.196;7.074;2023-04-16T22:15:45;6.50;;;5.97;;
19575;SDS011;41589;51.196;7.074;2023-04-16T22:20:52;6.70;;;6.20;;
19575;SDS011;41589;51.196;7.074;2023-04-16T22:25:56;6.80;;;6.30;;
19575;SDS011;41589;51.196;7.074;2023-04-16T22:30:56;7.20;;;6.57;;
19575;SDS011;41589;51.196;7.074;2023-04-16T22:36:07;6.83;;;6.23;;
19575;SDS011;41589;51.196;7.074;2023-04-16T22:41:07;6.93;;;6.43;;
19575;SDS011;41589;51.196;7.074;2023-04-16T22:46:08;7.40;;;6.80;;
19575;SDS011;41589;51.196;7.074;2023-04-16T22:51:08;7.33;;;6.73;;
19575;SDS011;41589;51.196;7.074;2023-04-16T22:56:11;8.03;;;7.43;;
19575;SDS011;41589;51.196;7.074;2023-04-16T23:01:12;8.97;;;8.17;;
19575;SDS011;41589;51.196;7.074;2023-04-16T23:06:12;9.03;;;8.43;;
19575;SDS011;41589;51.196;7.074;2023-04-16T23:11:12;9.97;;;9.27;;
19575;SDS011;41589;51.196;7.074;2023-04-16T23:16:13;9.53;;;8.83;;
19575;SDS011;41589;51.196;7.074;2023-04-16T23:21:13;8.80;;;8.23;;
19575;SDS011;41589;51.196;7.074;2023-04-16T23:26:16;10.03;;;9.33;;
19575;SDS011;41589;51.196;7.074;2023-04-16T23:31:17;10.77;;;10.00;;
19575;SDS011;41589;51.196;7.074;2023-04-16T23:36:20;10.13;;;9.43;;
19575;SDS011;41589;51.196;7.074;2023-04-16T23:41:23;9.63;;;9.03;;
19575;SDS011;41589;51.196;7.074;2023-04-16T23:46:26;9.77;;;9.07;;
19575;SDS011;41589;51.196;7.074;2023-04-16T23:51:27;9.97;;;9.37;;
19575;SDS011;41589;51.196;7.074;2023-04-16T23:56:33;10.80;;;10.00;;
